Wetterdaten: Woche 29.12.14 - 04.01.15 (KW1)
Datum Zeit Temp. Aussen Temp. o. S. +5cm Feuchte Auss BlattFeu 1 Luftdruck Regen Sonnenschein Regendauer Solar Windben Empfang
29.12.2014 00:00 -2,8 C -2,3 C -3,2 C 93 % 0 lf 1033,1 hPa 0,0 l/m 0,00 h 0,00 h 0 W/m 16,8 km/h (3 Bft) 98,75 %
29.12.2014 01:00 -2,2 C -1,8 C -2,8 C 93 % 0 lf 1032,4 hPa 0,0 l/m 0,00 h 0,00 h 0 W/m 24,2 km/h (4 Bft) 96,66 %
29.12.2014 02:00 -1,8 C -1,7 C -2,8 C 91 % 0 lf 1032,0 hPa 0,0 l/m 0,00 h 0,37 h 0 W/m 26,5 km/h (4 Bft) 98,37 %
29.12.2014 03:00 -1,9 C -1,7 C -2,8 C 92 % 1 lf 1031,4 hPa 0,0 l/m 0,00 h 1,00 h 0 W/m 32,6 km/h (5 Bft) 97,93 %
29.12.2014 04:00 -1,6 C -1,2 C -2,4 C 94 % 1 lf 1030,7 hPa 0,0 l/m 0,00 h 0,95 h 0 W/m 30,2 km/h (5 Bft) 95,79 %
29.12.2014 05:00 -0,8 C -0,4 C -1,7 C 95 % 3 lf 1030,0 hPa 0,0 l/m 0,00 h 1,00 h 0 W/m 27,5 km/h (4 Bft) 98,65 %
29.12.2014 06:00 -0,0 C 0,3 C -1,1 C 95 % 15 lf 1029,7 hPa 0,0 l/m 0,00 h 0,97 h 0 W/m 23,4 km/h (4 Bft) 98,90 %
29.12.2014 07:00 0,3 C 0,6 C -1,1 C 96 % 15 lf 1029,9 hPa 0,0 l/m 0,00 h 1,00 h 0 W/m 18,8 km/h (3 Bft) 95,38 %
29.12.2014 08:00 0,5 C 0,6 C -0,9 C 96 % 15 lf 1030,2 hPa 0,0 l/m 0,00 h 0,85 h 7 W/m 14,5 km/h (3 Bft) 96,47 %
29.12.2014 09:00 0,7 C 1,2 C -0,7 C 97 % 15 lf 1030,7 hPa 0,0 l/m 0,23 h 0,00 h 36 W/m 15,7 km/h (3 Bft) 98,07 %
29.12.2014 10:00 1,4 C 2,9 C 0,4 C 97 % 15 lf 1031,4 hPa 0,0 l/m 0,30 h 0,37 h 83 W/m 16,9 km/h (3 Bft) 96,16 %
29.12.2014 11:00 2,2 C 6,7 C 0,9 C 97 % 15 lf 1031,8 hPa 0,8 l/m 0,67 h 0,00 h 151 W/m 18,0 km/h (3 Bft) 97,98 %
29.12.2014 12:00 3,2 C 10,6 C 1,7 C 96 % 4 lf 1032,0 hPa 1,8 l/m 0,93 h 0,00 h 214 W/m 21,0 km/h (4 Bft) 98,42 %
29.12.2014 13:00 3,6 C 6,0 C 2,1 C 91 % 0 lf 1032,3 hPa 1,4 l/m 0,30 h 0,00 h 128 W/m 19,2 km/h (3 Bft) 94,94 %
29.12.2014 14:00 3,2 C 4,4 C 1,7 C 88 % 0 lf 1032,8 hPa 0,8 l/m 0,47 h 0,00 h 94 W/m 20,3 km/h (4 Bft) 98,51 %
29.12.2014 15:00 2,8 C 3,2 C 1,1 C 87 % 0 lf 1033,6 hPa 0,4 l/m 0,50 h 0,00 h 54 W/m 15,1 km/h (3 Bft) 97,07 %
29.12.2014 16:00 2,3 C 1,8 C 0,0 C 86 % 0 lf 1034,6 hPa 0,0 l/m 0,00 h 0,00 h 11 W/m 7,2 km/h (2 Bft) 95,01 %
29.12.2014 17:00 0,9 C -1,3 C -2,5 C 86 % 1 lf 1035,4 hPa 0,2 l/m 0,00 h 0,00 h 0 W/m 4,3 km/h (1 Bft) 99,15 %
29.12.2014 18:00 -0,7 C -1,9 C -2,8 C 87 % 7 lf 1036,0 hPa 0,0 l/m 0,00 h 0,00 h 0 W/m 2,8 km/h (1 Bft) 98,01 %
29.12.2014 19:00 -1,1 C -1,6 C -2,5 C 90 % 10 lf 1036,6 hPa 0,0 l/m 0,00 h 0,00 h 0 W/m 1,8 km/h (1 Bft) 95,22 %
29.12.2014 20:00 -1,4 C -2,0 C -2,8 C 91 % 14 lf 1036,8 hPa 0,0 l/m 0,00 h 0,00 h 0 W/m 3,1 km/h (1 Bft) 96,84 %
29.12.2014 21:00 -1,2 C -1,0 C -1,9 C 93 % 14 lf 1037,0 hPa 0,0 l/m 0,00 h 0,00 h 0 W/m 5,5 km/h (1 Bft) 96,95 %
29.12.2014 22:00 -0,8 C -0,3 C -1,6 C 93 % 12 lf 1037,2 hPa 0,0 l/m 0,00 h 0,00 h 0 W/m 5,5 km/h (1 Bft) 98,08 %
29.12.2014 23:00 -0,4 C 0,0 C -1,2 C 94 % 6 lf 1037,0 hPa 0,0 l/m 0,00 h 0,00 h 0 W/m 6,2 km/h (2 Bft) 97,94 %
30.12.2014 00:00 -0,1 C 0,6 C -0,9 C 94 % 3 lf 1036,7 hPa 0,0 l/m 0,00 h 0,00 h 0 W/m 7,8 km/h (2 Bft) 96,76 %
30.12.2014 01:00 0,5 C 1,1 C -0,6 C 95 % 12 lf 1036,4 hPa 0,0 l/m 0,00 h 0,53 h 0 W/m 12,2 km/h (2 Bft) 97,15 %
30.12.2014 02:00 1,1 C 1,4 C -0,1 C 95 % 15 lf 1036,2 hPa 0,0 l/m 0,00 h 0,87 h 0 W/m 12,6 km/h (3 Bft) 97,08 %
30.12.2014 03:00 1,4 C 1,5 C 0,0 C 96 % 15 lf 1036,0 hPa 0,6 l/m 0,00 h 0,67 h 0 W/m 13,3 km/h (3 Bft) 99,00 %
30.12.2014 04:00 1,6 C 1,7 C 0,2 C 96 % 15 lf 1035,9 hPa 0,4 l/m 0,00 h 0,60 h 0 W/m 11,4 km/h (2 Bft) 96,53 %
30.12.2014 05:00 1,5 C 1,7 C 0,0 C 97 % 15 lf 1035,7 hPa 0,0 l/m 0,00 h 0,03 h 0 W/m 11,0 km/h (2 Bft) 94,92 %
30.12.2014 06:00 1,6 C 1,7 C 0,6 C 97 % 15 lf 1035,5 hPa 0,2 l/m 0,00 h 0,13 h 0 W/m 12,4 km/h (3 Bft) 99,19 %
30.12.2014 07:00 1,6 C 1,8 C 0,2 C 97 % 15 lf 1035,5 hPa 0,2 l/m 0,00 h 0,10 h 0 W/m 8,8 km/h (2 Bft) 97,86 %
30.12.2014 08:00 1,8 C 2,1 C 0,5 C 97 % 15 lf 1035,7 hPa 0,0 l/m 0,00 h 0,40 h 5 W/m 10,3 km/h (2 Bft) 95,95 %
30.12.2014 09:00 1,8 C 2,2 C 0,6 C 97 % 15 lf 1035,6 hPa 0,2 l/m 0,00 h 0,00 h 21 W/m 9,4 km/h (2 Bft) 97,08 %
30.12.2014 10:00 2,0 C 2,7 C 1,1 C 98 % 15 lf 1035,6 hPa 0,2 l/m 0,00 h 0,00 h 49 W/m 8,3 km/h (2 Bft) 96,30 %
30.12.2014 11:00 2,4 C 3,4 C 1,6 C 98 % 15 lf 1035,5 hPa 0,0 l/m 0,00 h 0,00 h 74 W/m 9,9 km/h (2 Bft) 97,44 %
30.12.2014 12:00 3,1 C 5,7 C 2,3 C 98 % 10 lf 1035,2 hPa 0,0 l/m 0,40 h 0,00 h 138 W/m 12,8 km/h (3 Bft) 98,93 %
30.12.2014 13:00 3,9 C 5,5 C 2,8 C 97 % 0 lf 1034,8 hPa 0,0 l/m 0,03 h 0,00 h 100 W/m 11,5 km/h (2 Bft) 95,17 %
30.12.2014 14:00 3,9 C 4,7 C 2,5 C 95 % 0 lf 1034,7 hPa 0,0 l/m 0,00 h 0,00 h 52 W/m 9,1 km/h (2 Bft) 97,05 %
30.12.2014 15:00 3,5 C 3,7 C 1,8 C 93 % 0 lf 1034,6 hPa 0,0 l/m 0,00 h 0,00 h 13 W/m 8,8 km/h (2 Bft) 99,36 %
30.12.2014 16:00 3,2 C 3,3 C 1,6 C 93 % 0 lf 1034,5 hPa 0,0 l/m 0,00 h 0,00 h 5 W/m 10,2 km/h (2 Bft) 96,81 %
30.12.2014 17:00 2,9 C 3,3 C 1,2 C 92 % 0 lf 1034,2 hPa 0,0 l/m 0,00 h 0,00 h 0 W/m 10,6 km/h (2 Bft) 95,31 %
30.12.2014 18:00 2,9 C 3,2 C 1,3 C 92 % 0 lf 1034,1 hPa 0,0 l/m 0,00 h 0,00 h 0 W/m 10,9 km/h (2 Bft) 97,94 %
30.12.2014 19:00 2,5 C 2,4 C 0,8 C 92 % 1 lf 1034,1 hPa 0,0 l/m 0,00 h 0,00 h 0 W/m 10,5 km/h (2 Bft) 98,23 %
30.12.2014 20:00 2,6 C 3,0 C 1,1 C 93 % 0 lf 1034,5 hPa 0,0 l/m 0,00 h 0,00 h 0 W/m 15,0 km/h (3 Bft) 97,44 %
30.12.2014 21:00 2,6 C 2,8 C 1,1 C 93 % 1 lf 1034,3 hPa 0,0 l/m 0,00 h 0,00 h 0 W/m 15,7 km/h (3 Bft) 96,59 %
30.12.2014 22:00 2,5 C 2,8 C 1,1 C 94 % 1 lf 1034,1 hPa 0,0 l/m 0,00 h 0,00 h 0 W/m 16,9 km/h (3 Bft) 97,36 %
30.12.2014 23:00 2,5 C 2,8 C 1,1 C 94 % 2 lf 1034,1 hPa 0,0 l/m 0,00 h 0,00 h 0 W/m 16,6 km/h (3 Bft) 96,80 %
31.12.2014 00:00 2,6 C 2,8 C 1,1 C 95 % 9 lf 1033,8 hPa 0,0 l/m 0,00 h 0,07 h 0 W/m 17,0 km/h (3 Bft) 97,46 %
31.12.2014 01:00 2,5 C 2,8 C 1,1 C 95 % 5 lf 1033,5 hPa 0,0 l/m 0,00 h 0,00 h 0 W/m 18,2 km/h (3 Bft) 98,57 %
31.12.2014 02:00 2,5 C 2,8 C 1,6 C 96 % 1 lf 1033,6 hPa 0,0 l/m 0,00 h 0,00 h 0 W/m 16,3 km/h (3 Bft) 94,52 %
31.12.2014 03:00 2,6 C 2,8 C 1,7 C 96 % 1 lf 1033,7 hPa 0,0 l/m 0,00 h 0,00 h 0 W/m 15,8 km/h (3 Bft) 97,86 %
31.12.2014 04:00 2,6 C 2,8 C 1,7 C 96 % 1 lf 1033,6 hPa 0,0 l/m 0,00 h 0,00 h 0 W/m 12,6 km/h (3 Bft) 99,64 %
31.12.2014 05:00 2,6 C 2,8 C 1,7 C 96 % 1 lf 1033,3 hPa 0,0 l/m 0,00 h 0,00 h 0 W/m 14,4 km/h (3 Bft) 96,01 %
31.12.2014 06:00 2,7 C 2,8 C 1,7 C 96 % 1 lf 1033,2 hPa 0,0 l/m 0,00 h 0,00 h 0 W/m 13,5 km/h (3 Bft) 97,35 %
31.12.2014 07:00 2,7 C 3,0 C 1,7 C 96 % 1 lf 1033,6 hPa 0,0 l/m 0,00 h 0,00 h 0 W/m 12,2 km/h (3 Bft) 99,00 %
31.12.2014 08:00 2,7 C 3,3 C 1,7 C 96 % 6 lf 1034,1 hPa 0,0 l/m 0,00 h 0,00 h 5 W/m 11,1 km/h (2 Bft) 94,61 %
31.12.2014 09:00 3,0 C 3,3 C 1,8 C 96 % 12 lf 1034,5 hPa 0,0 l/m 0,00 h 0,00 h 14 W/m 11,4 km/h (2 Bft) 99,05 %
31.12.2014 10:00 3,2 C 3,8 C 2,5 C 96 % 15 lf 1034,6 hPa 0,0 l/m 0,00 h 0,00 h 50 W/m 9,5 km/h (2 Bft) 97,29 %
31.12.2014 11:00 3,8 C 5,0 C 3,2 C 97 % 10 lf 1034,7 hPa 0,0 l/m 0,00 h 0,00 h 65 W/m 13,0 km/h (3 Bft) 94,73 %
31.12.2014 12:00 4,4 C 5,5 C 4,0 C 97 % 0 lf 1034,6 hPa 0,0 l/m 0,00 h 0,00 h 77 W/m 14,5 km/h (3 Bft) 98,82 %
31.12.2014 13:00 5,0 C 6,7 C 4,9 C 96 % 0 lf 1034,4 hPa 0,0 l/m 0,27 h 0,00 h 120 W/m 12,6 km/h (3 Bft) 98,51 %
31.12.2014 14:00 5,4 C 6,5 C 4,6 C 95 % 0 lf 1034,4 hPa 0,0 l/m 0,00 h 0,00 h 77 W/m 11,4 km/h (2 Bft) 94,81 %
31.12.2014 15:00 5,5 C 6,2 C 4,4 C 94 % 0 lf 1034,6 hPa 0,0 l/m 0,00 h 0,00 h 41 W/m 9,5 km/h (2 Bft) 98,30 %
31.12.2014 16:00 5,3 C 5,2 C 3,5 C 94 % 1 lf 1034,7 hPa 0,0 l/m 0,00 h 0,00 h 13 W/m 5,9 km/h (2 Bft) 98,29 %
31.12.2014 17:00 4,4 C 3,4 C 1,3 C 93 % 12 lf 1034,8 hPa 0,0 l/m 0,00 h 0,00 h 0 W/m 5,1 km/h (1 Bft) 96,37 %
31.12.2014 18:00 3,0 C 1,9 C 0,1 C 92 % 15 lf 1035,0 hPa 0,0 l/m 0,00 h 0,00 h 0 W/m 5,3 km/h (1 Bft) 97,50 %
31.12.2014 19:00 2,3 C 1,6 C -0,0 C 93 % 15 lf 1035,1 hPa 0,0 l/m 0,00 h 0,00 h 0 W/m 7,3 km/h (2 Bft) 96,23 %
31.12.2014 20:00 2,0 C 1,6 C 0,0 C 94 % 15 lf 1035,3 hPa 0,0 l/m 0,00 h 0,00 h 0 W/m 7,8 km/h (2 Bft) 97,59 %
31.12.2014 21:00 1,8 C 1,1 C -0,0 C 95 % 15 lf 1035,6 hPa 0,0 l/m 0,00 h 0,00 h 0 W/m 7,7 km/h (2 Bft) 98,30 %
31.12.2014 22:00 1,5 C 0,8 C -0,6 C 95 % 15 lf 1035,7 hPa 0,0 l/m 0,00 h 0,00 h 0 W/m 7,9 km/h (2 Bft) 97,93 %
31.12.2014 23:00 1,2 C 0,6 C -0,7 C 96 % 15 lf 1035,9 hPa 0,0 l/m 0,00 h 0,00 h 0 W/m 7,5 km/h (2 Bft) 95,74 %
01.01.2015 00:00 0,9 C 0,5 C -0,9 C 96 % 15 lf 1035,6 hPa 0,0 l/m 0,00 h 0,00 h 0 W/m 8,0 km/h (2 Bft) 96,88 %
01.01.2015 01:00 0,8 C 0,5 C -0,8 C 96 % 15 lf 1035,5 hPa 0,0 l/m 0,00 h 0,00 h 0 W/m 8,0 km/h (2 Bft) 99,00 %
01.01.2015 02:00 0,6 C 0,2 C -1,1 C 96 % 15 lf 1035,5 hPa 0,0 l/m 0,00 h 0,00 h 0 W/m 8,5 km/h (2 Bft) 97,93 %
01.01.2015 03:00 0,6 C 0,4 C -0,8 C 97 % 15 lf 1035,5 hPa 0,0 l/m 0,00 h 0,00 h 0 W/m 9,0 km/h (2 Bft) 95,65 %
01.01.2015 04:00 0,5 C 0,4 C -0,9 C 97 % 15 lf 1034,8 hPa 0,0 l/m 0,00 h 0,00 h 0 W/m 8,5 km/h (2 Bft) 97,81 %
01.01.2015 05:00 0,7 C 0,1 C -1,2 C 97 % 15 lf 1035,3 hPa 0,0 l/m 0,00 h 0,00 h 0 W/m 5,5 km/h (1 Bft) 96,87 %
01.01.2015 06:00 0,0 C -0,8 C -2,2 C 97 % 15 lf 1036,1 hPa 0,0 l/m 0,00 h 0,00 h 0 W/m 6,7 km/h (2 Bft) 97,47 %
01.01.2015 07:00 -0,4 C -0,6 C -2,0 C 97 % 15 lf 1036,0 hPa 0,0 l/m 0,00 h 0,00 h 0 W/m 9,7 km/h (2 Bft) 98,79 %
01.01.2015 08:00 -0,2 C -0,1 C -1,7 C 97 % 15 lf 1034,8 hPa 0,0 l/m 0,07 h 0,00 h 12 W/m 15,5 km/h (3 Bft) 94,10 %
01.01.2015 09:00 0,0 C -0,0 C -1,7 C 97 % 15 lf 1034,9 hPa 0,0 l/m 0,57 h 0,00 h 44 W/m 9,8 km/h (2 Bft) 98,18 %
01.01.2015 10:00 0,6 C 1,8 C -0,3 C 97 % 15 lf 1035,6 hPa 0,0 l/m 0,93 h 0,00 h 139 W/m 7,8 km/h (2 Bft) 99,10 %
01.01.2015 11:00 2,1 C 8,4 C 1,0 C 98 % 15 lf 1035,1 hPa 0,2 l/m 0,97 h 0,00 h 181 W/m 14,6 km/h (3 Bft) 94,82 %
01.01.2015 12:00 4,1 C 9,7 C 2,9 C 90 % 10 lf 1034,1 hPa 0,0 l/m 0,87 h 0,00 h 214 W/m 20,5 km/h (4 Bft) 96,84 %
01.01.2015 13:00 5,5 C 12,0 C 3,8 C 77 % 0 lf 1033,7 hPa 0,0 l/m 1,00 h 0,00 h 217 W/m 20,8 km/h (4 Bft) 97,81 %
01.01.2015 14:00 5,7 C 7,8 C 3,9 C 75 % 0 lf 1033,0 hPa 0,0 l/m 0,97 h 0,00 h 138 W/m 25,5 km/h (4 Bft) 98,25 %
01.01.2015 15:00 5,2 C 5,7 C 3,7 C 77 % 0 lf 1032,5 hPa 0,0 l/m 0,57 h 0,00 h 60 W/m 19,1 km/h (3 Bft) 99,44 %
01.01.2015 16:00 4,5 C 4,4 C 2,4 C 79 % 0 lf 1032,2 hPa 0,0 l/m 0,13 h 0,00 h 16 W/m 18,5 km/h (3 Bft) 94,10 %
01.01.2015 17:00 3,8 C 3,8 C 1,9 C 82 % 0 lf 1031,0 hPa 0,0 l/m 0,00 h 0,00 h 0 W/m 18,5 km/h (3 Bft) 96,77 %
01.01.2015 18:00 3,7 C 3,9 C 2,0 C 82 % 0 lf 1030,6 hPa 0,0 l/m 0,00 h 0,00 h 0 W/m 16,3 km/h (3 Bft) 99,07 %
01.01.2015 19:00 3,5 C 3,3 C 1,7 C 83 % 0 lf 1030,3 hPa 0,0 l/m 0,00 h 0,00 h 0 W/m 14,4 km/h (3 Bft) 95,60 %
01.01.2015 20:00 3,1 C 3,0 C 1,2 C 84 % 0 lf 1029,8 hPa 0,0 l/m 0,00 h 0,00 h 0 W/m 15,4 km/h (3 Bft) 97,08 %
01.01.2015 21:00 2,4 C 2,3 C 0,5 C 85 % 0 lf 1028,9 hPa 0,0 l/m 0,00 h 0,00 h 0 W/m 14,4 km/h (3 Bft) 97,65 %
01.01.2015 22:00 1,8 C 2,1 C -0,0 C 85 % 0 lf 1028,2 hPa 0,0 l/m 0,00 h 0,00 h 0 W/m 10,7 km/h (2 Bft) 95,66 %
01.01.2015 23:00 1,9 C 2,7 C 0,6 C 82 % 0 lf 1027,3 hPa 0,0 l/m 0,00 h 0,00 h 0 W/m 14,1 km/h (3 Bft) 98,86 %
02.01.2015 00:00 3,8 C 4,7 C 2,6 C 72 % 0 lf 1026,6 hPa 0,0 l/m 0,00 h 0,00 h 0 W/m 24,7 km/h (4 Bft) 97,09 %
02.01.2015 01:00 4,7 C 5,0 C 3,2 C 67 % 0 lf 1025,5 hPa 0,0 l/m 0,00 h 0,00 h 0 W/m 31,6 km/h (5 Bft) 94,88 %
02.01.2015 02:00 5,1 C 5,5 C 3,6 C 70 % 0 lf 1024,3 hPa 0,0 l/m 0,00 h 0,00 h 0 W/m 28,5 km/h (4 Bft) 99,57 %
02.01.2015 03:00 5,6 C 6,1 C 4,1 C 72 % 0 lf 1023,5 hPa 0,0 l/m 0,00 h 0,00 h 0 W/m 24,1 km/h (4 Bft) 98,22 %
02.01.2015 04:00 5,9 C 5,9 C 4,0 C 80 % 12 lf 1022,7 hPa 0,0 l/m 0,00 h 0,67 h 0 W/m 36,5 km/h (5 Bft) 96,13 %
02.01.2015 05:00 5,5 C 5,2 C 3,5 C 88 % 15 lf 1022,2 hPa 0,2 l/m 0,00 h 0,90 h 0 W/m 41,4 km/h (6 Bft) 97,15 %
02.01.2015 06:00 5,1 C 4,6 C 3,3 C 93 % 15 lf 1021,9 hPa 1,8 l/m 0,00 h 0,87 h 0 W/m 40,7 km/h (6 Bft) 97,26 %
02.01.2015 07:00 5,1 C 5,0 C 3,7 C 95 % 15 lf 1022,2 hPa 0,0 l/m 0,00 h 0,33 h 0 W/m 41,0 km/h (6 Bft) 97,08 %
02.01.2015 08:00 5,6 C 5,6 C 4,1 C 96 % 15 lf 1022,8 hPa 0,2 l/m 0,00 h 0,60 h 0 W/m 34,5 km/h (5 Bft) 98,50 %
02.01.2015 09:00 6,1 C 6,2 C 4,7 C 97 % 15 lf 1023,5 hPa 0,0 l/m 0,00 h 0,03 h 6 W/m 33,3 km/h (5 Bft) 95,30 %
02.01.2015 10:00 6,7 C 6,7 C 5,1 C 97 % 14 lf 1024,2 hPa 0,4 l/m 0,00 h 0,73 h 10 W/m 28,7 km/h (4 Bft) 97,00 %
02.01.2015 11:00 7,3 C 7,6 C 6,0 C 97 % 15 lf 1025,2 hPa 0,0 l/m 0,00 h 0,17 h 66 W/m 22,0 km/h (4 Bft) 98,36 %
02.01.2015 12:00 7,8 C 8,9 C 6,5 C 97 % 15 lf 1025,7 hPa 0,0 l/m 0,37 h 0,00 h 136 W/m 23,1 km/h (4 Bft) 96,10 %
02.01.2015 13:00 7,9 C 9,8 C 5,7 C 89 % 7 lf 1026,1 hPa 0,0 l/m 0,30 h 0,00 h 121 W/m 24,6 km/h (4 Bft) 95,80 %
02.01.2015 14:00 7,7 C 10,5 C 4,8 C 77 % 0 lf 1026,6 hPa 0,0 l/m 0,83 h 0,00 h 116 W/m 20,5 km/h (4 Bft) 99,22 %
02.01.2015 15:00 7,4 C 7,7 C 4,4 C 77 % 0 lf 1027,5 hPa 0,0 l/m 0,23 h 0,00 h 53 W/m 13,9 km/h (3 Bft) 96,51 %
02.01.2015 16:00 6,7 C 6,6 C 4,0 C 79 % 0 lf 1028,4 hPa 0,0 l/m 0,00 h 0,00 h 13 W/m 19,7 km/h (3 Bft) 96,72 %
02.01.2015 17:00 6,2 C 6,0 C 3,4 C 77 % 0 lf 1029,5 hPa 0,0 l/m 0,00 h 0,00 h 0 W/m 23,3 km/h (4 Bft) 96,94 %
02.01.2015 18:00 5,5 C 5,2 C 2,9 C 79 % 0 lf 1030,3 hPa 0,0 l/m 0,00 h 0,00 h 0 W/m 20,0 km/h (4 Bft) 97,91 %
02.01.2015 19:00 4,8 C 4,6 C 2,4 C 81 % 0 lf 1030,7 hPa 0,0 l/m 0,00 h 0,00 h 0 W/m 19,0 km/h (3 Bft) 97,85 %
02.01.2015 20:00 4,2 C 4,1 C 2,2 C 83 % 0 lf 1031,3 hPa 0,0 l/m 0,00 h 0,00 h 0 W/m 18,0 km/h (3 Bft) 96,73 %
02.01.2015 21:00 3,8 C 3,8 C 2,1 C 84 % 1 lf 1031,8 hPa 0,0 l/m 0,00 h 0,00 h 0 W/m 19,5 km/h (3 Bft) 96,30 %
02.01.2015 22:00 3,5 C 3,4 C 1,9 C 85 % 1 lf 1032,1 hPa 0,0 l/m 0,00 h 0,00 h 0 W/m 20,4 km/h (4 Bft) 97,22 %
02.01.2015 23:00 3,4 C 3,3 C 1,7 C 85 % 1 lf 1031,9 hPa 0,0 l/m 0,00 h 0,00 h 0 W/m 18,9 km/h (3 Bft) 97,57 %
03.01.2015 00:00 3,0 C 3,0 C 1,5 C 86 % 1 lf 1032,1 hPa 0,0 l/m 0,00 h 0,00 h 0 W/m 17,6 km/h (3 Bft) 98,68 %
03.01.2015 01:00 2,9 C 2,9 C 1,4 C 87 % 1 lf 1031,8 hPa 0,0 l/m 0,00 h 0,00 h 0 W/m 13,3 km/h (3 Bft) 94,80 %
03.01.2015 02:00 2,7 C 3,0 C 1,5 C 87 % 1 lf 1031,6 hPa 0,0 l/m 0,00 h 0,00 h 0 W/m 13,3 km/h (3 Bft) 97,15 %
03.01.2015 03:00 3,1 C 3,3 C 1,8 C 87 % 1 lf 1030,7 hPa 0,0 l/m 0,00 h 0,00 h 0 W/m 13,0 km/h (3 Bft) 98,86 %
03.01.2015 04:00 3,2 C 3,3 C 1,9 C 87 % 1 lf 1029,8 hPa 0,0 l/m 0,00 h 0,00 h 0 W/m 13,7 km/h (3 Bft) 96,51 %
03.01.2015 05:00 3,3 C 3,4 C 2,2 C 88 % 1 lf 1028,9 hPa 0,0 l/m 0,00 h 0,00 h 0 W/m 13,3 km/h (3 Bft) 97,37 %
03.01.2015 06:00 3,5 C 3,9 C 2,2 C 88 % 1 lf 1027,6 hPa 0,0 l/m 0,00 h 0,00 h 0 W/m 16,0 km/h (3 Bft) 97,49 %
03.01.2015 07:00 3,6 C 4,0 C 2,3 C 87 % 0 lf 1027,2 hPa 0,0 l/m 0,00 h 0,00 h 0 W/m 18,5 km/h (3 Bft) 96,15 %
03.01.2015 08:00 3,7 C 3,9 C 2,4 C 86 % 0 lf 1026,6 hPa 0,0 l/m 0,00 h 0,00 h 5 W/m 21,6 km/h (4 Bft) 99,14 %
03.01.2015 09:00 3,9 C 4,2 C 2,5 C 86 % 9 lf 1025,7 hPa 0,0 l/m 0,00 h 0,50 h 13 W/m 28,0 km/h (4 Bft) 97,29 %
03.01.2015 10:00 3,8 C 3,9 C 2,2 C 89 % 15 lf 1024,9 hPa 0,0 l/m 0,00 h 0,70 h 33 W/m 23,0 km/h (4 Bft) 94,81 %
03.01.2015 11:00 3,5 C 3,3 C 2,0 C 92 % 15 lf 1023,7 hPa 0,4 l/m 0,00 h 1,00 h 30 W/m 18,1 km/h (3 Bft) 99,22 %
03.01.2015 12:00 3,0 C 2,8 C 1,7 C 93 % 15 lf 1021,9 hPa 0,4 l/m 0,00 h 0,97 h 42 W/m 17,4 km/h (3 Bft) 97,35 %
03.01.2015 13:00 2,5 C 2,3 C 1,3 C 94 % 15 lf 1020,0 hPa 0,8 l/m 0,00 h 0,93 h 42 W/m 16,0 km/h (3 Bft) 96,36 %
03.01.2015 14:00 2,4 C 2,6 C 1,6 C 95 % 15 lf 1018,5 hPa 0,0 l/m 0,00 h 0,00 h 42 W/m 10,4 km/h (2 Bft) 95,88 %
03.01.2015 15:00 2,5 C 2,8 C 1,7 C 96 % 15 lf 1017,1 hPa 0,0 l/m 0,00 h 0,10 h 22 W/m 8,4 km/h (2 Bft) 96,93 %
03.01.2015 16:00 2,6 C 2,7 C 1,6 C 96 % 15 lf 1016,6 hPa 1,2 l/m 0,00 h 1,00 h 3 W/m 6,9 km/h (2 Bft) 97,22 %
03.01.2015 17:00 2,2 C 1,4 C -0,2 C 96 % 15 lf 1016,5 hPa 3,0 l/m 0,00 h 0,70 h 0 W/m 4,8 km/h (1 Bft) 98,86 %
03.01.2015 18:00 1,2 C 1,1 C -0,4 C 96 % 15 lf 1017,2 hPa 0,4 l/m 0,00 h 0,97 h 0 W/m 2,9 km/h (1 Bft) 96,59 %
03.01.2015 19:00 1,0 C 1,1 C 0,0 C 96 % 15 lf 1018,7 hPa 0,4 l/m 0,00 h 0,77 h 0 W/m 4,7 km/h (1 Bft) 97,04 %
03.01.2015 20:00 1,1 C 1,1 C 0,1 C 96 % 15 lf 1019,4 hPa 0,2 l/m 0,00 h 0,37 h 0 W/m 5,8 km/h (2 Bft) 98,08 %
03.01.2015 21:00 1,6 C 2,0 C 0,9 C 97 % 15 lf 1021,1 hPa 0,0 l/m 0,00 h 1,00 h 0 W/m 10,5 km/h (2 Bft) 98,72 %
03.01.2015 22:00 2,1 C 2,3 C 1,1 C 97 % 15 lf 1022,2 hPa 0,2 l/m 0,00 h 1,00 h 0 W/m 13,6 km/h (3 Bft) 96,44 %
03.01.2015 23:00 2,4 C 2,8 C 1,4 C 97 % 15 lf 1023,4 hPa 0,0 l/m 0,00 h 1,00 h 0 W/m 14,7 km/h (3 Bft) 95,37 %
04.01.2015 00:00 2,8 C 3,0 C 1,7 C 98 % 15 lf 1024,8 hPa 0,0 l/m 0,00 h 0,97 h 0 W/m 16,9 km/h (3 Bft) 98,77 %
04.01.2015 01:00 2,7 C 2,4 C 1,1 C 98 % 15 lf 1026,1 hPa 0,0 l/m 0,00 h 1,00 h 0 W/m 14,0 km/h (3 Bft) 97,43 %
04.01.2015 02:00 2,2 C 1,8 C 0,6 C 98 % 15 lf 1027,0 hPa 0,0 l/m 0,00 h 1,00 h 0 W/m 14,1 km/h (3 Bft) 97,37 %
04.01.2015 03:00 1,9 C 1,3 C 0,3 C 98 % 15 lf 1027,8 hPa 0,0 l/m 0,00 h 0,77 h 0 W/m 9,6 km/h (2 Bft) 96,80 %
04.01.2015 04:00 1,4 C 0,7 C -0,4 C 98 % 15 lf 1028,3 hPa 0,0 l/m 0,00 h 0,00 h 0 W/m 8,6 km/h (2 Bft) 92,75 %
04.01.2015 05:00 0,9 C 0,2 C -0,9 C 98 % 15 lf 1028,9 hPa 0,0 l/m 0,00 h 0,00 h 0 W/m 9,1 km/h (2 Bft) 98,79 %
04.01.2015 06:00 0,8 C 0,2 C -0,8 C 97 % 15 lf 1029,5 hPa 0,0 l/m 0,00 h 0,00 h 0 W/m 9,9 km/h (2 Bft) 99,26 %
04.01.2015 07:00 0,7 C 0,5 C -0,7 C 98 % 15 lf 1030,0 hPa 0,0 l/m 0,00 h 0,00 h 0 W/m 12,4 km/h (3 Bft) 94,07 %
04.01.2015 08:00 0,6 C 0,1 C -1,0 C 98 % 15 lf 1030,6 hPa 0,0 l/m 0,00 h 0,00 h 9 W/m 9,2 km/h (2 Bft) 97,72 %
04.01.2015 09:00 0,6 C 0,8 C -0,5 C 98 % 15 lf 1031,6 hPa 0,0 l/m 0,93 h 0,00 h 54 W/m 11,7 km/h (2 Bft) 98,43 %
04.01.2015 10:00 1,6 C 3,0 C 0,7 C 98 % 15 lf 1032,6 hPa 0,0 l/m 1,00 h 0,00 h 139 W/m 13,1 km/h (3 Bft) 95,95 %
04.01.2015 11:00 3,1 C 10,0 C 1,9 C 98 % 15 lf 1033,2 hPa 0,0 l/m 1,00 h 0,00 h 203 W/m 15,5 km/h (3 Bft) 97,80 %
04.01.2015 12:00 4,7 C 12,5 C 3,3 C 95 % 10 lf 1033,3 hPa 0,0 l/m 0,97 h 0,00 h 224 W/m 17,7 km/h (3 Bft) 98,16 %
04.01.2015 13:00 6,2 C 13,7 C 4,3 C 88 % 1 lf 1033,5 hPa 0,0 l/m 1,00 h 0,00 h 206 W/m 19,8 km/h (3 Bft) 97,07 %
04.01.2015 14:00 6,5 C 11,1 C 4,4 C 85 % 0 lf 1033,8 hPa 0,2 l/m 1,00 h 0,00 h 136 W/m 15,0 km/h (3 Bft) 98,01 %
04.01.2015 15:00 6,0 C 6,6 C 4,1 C 86 % 0 lf 1034,1 hPa 0,0 l/m 0,60 h 0,00 h 75 W/m 15,3 km/h (3 Bft) 95,73 %
04.01.2015 16:00 5,0 C 4,1 C 2,2 C 89 % 3 lf 1034,5 hPa 0,0 l/m 0,10 h 0,00 h 14 W/m 7,6 km/h (2 Bft) 97,65 %
04.01.2015 17:00 3,7 C 2,0 C 0,2 C 89 % 14 lf 1034,6 hPa 0,0 l/m 0,00 h 0,00 h 0 W/m 6,3 km/h (2 Bft) 97,44 %
04.01.2015 18:00 2,5 C 1,4 C -0,3 C 90 % 15 lf 1034,9 hPa 0,0 l/m 0,00 h 0,00 h 0 W/m 5,5 km/h (1 Bft) 96,11 %
04.01.2015 19:00 1,8 C 0,7 C -1,0 C 92 % 15 lf 1035,4 hPa 0,0 l/m 0,00 h 0,00 h 0 W/m 6,7 km/h (2 Bft) 99,08 %
04.01.2015 20:00 1,3 C 0,4 C -1,0 C 93 % 15 lf 1035,5 hPa 0,0 l/m 0,00 h 0,00 h 0 W/m 7,6 km/h (2 Bft) 97,94 %
04.01.2015 21:00 1,1 C 0,6 C -0,6 C 94 % 15 lf 1035,9 hPa 0,0 l/m 0,00 h 0,00 h 0 W/m 9,6 km/h (2 Bft) 95,02 %
04.01.2015 22:00 1,1 C 0,6 C -0,5 C 95 % 15 lf 1036,1 hPa 0,0 l/m 0,00 h 0,00 h 0 W/m 13,6 km/h (3 Bft) 98,15 %
04.01.2015 23:00 1,2 C 1,1 C 0,2 C 96 % 15 lf 1036,2 hPa 0,0 l/m 0,00 h 0,00 h 0 W/m 19,2 km/h (3 Bft) 97,29 %
Min-Datum _ 29.12.14 29.12.14 29.12.14 02.01.15 29.12.14 03.01.15 - - - - 29.12.14 04.01.15
_ Min-Zeit 00:00 00:00 00:00 01:02 00:00 17:20 - - - - 19:26 04:05
Minimum _ -3,2 C -2,8 C -3,3 C 67 % 0 lf 1016,3 hPa - - - - 0,0 km/h (0 Bft) 23,08 %
Max-Datum _ 02.01.15 04.01.15 02.01.15 30.12.14 29.12.14 29.12.14 03.01.15 29.12.14 29.12.14 29.12.14 02.01.15 29.12.14
_ Max-Zeit 12:58 12:56 12:54 09:58 06:05 22:04 17:02 09:46 02:32 13:02 06:06 00:08
Maximum _ 8,2 C 15,0 C 7,2 C 98 % 15 lf 1037,5 hPa 3,0 l/m 0,03 h 0,03 h 333 W/m 66,6 km/h
SW (8 Bft)
100,00 %
Durchschnitt _ 2,6 C 3,1 C 1,1 C 92 % 8 lf 1031,2 hPa #17,2 l/m #18:30 h #29:00 h 73 W/m 14,8 km/h (3 Bft) 97,22 %
© 2015 W. Hausmann